Granex 2 — YP3264 — position and weather

sailwx.info

Track history (hours):
 
Tides and Currents Weather Stations Pressure Air Temp Water Temp Dewpoint Dewpoint Depression Visibility Wind Speed Wind Dir Waves Ship Positions

Granex 2

Last reported at 2017-Nov-17 23:01 UTC. Time now 2017-Nov-17 23:22 UTC.
Position N 44°07' E 028°39'.

Length 85 m; draft 2.5 m.

Type: Ship. MMSI: 264163264.

Date/timePositionNaut miles runAvg speedWind from/ knotsBaromVisibWave heightAir tempDewpointWater temp
2017-Nov-17 23:01N 44°07' E 028°39'0 0.0
2017-Nov-17 22:31N 44°07' E 028°39'0 0.0
2017-Nov-17 22:01N 44°07' E 028°39'0 0.0
2017-Nov-17 21:31N 44°07' E 028°39'0 0.0
2017-Nov-17 21:01N 44°07' E 028°39'0 0.0
2017-Nov-17 20:31N 44°07' E 028°39'0 0.0
2017-Nov-17 20:01N 44°07' E 028°39'0 0.0
2017-Nov-17 19:31N 44°07' E 028°39'0 0.0
2017-Nov-17 19:00N 44°07' E 028°39'0 0.0
2017-Nov-17 18:31N 44°07' E 028°39'0 0.0
2017-Nov-17 18:01N 44°07' E 028°39'1 2.3
2017-Nov-17 17:31N 44°06' E 028°39'1 2.1
2017-Nov-17 16:59N 44°06' E 028°37'0 0.0
2017-Nov-17 16:31N 44°06' E 028°37'0 0.6
2017-Nov-17 16:01N 44°06' E 028°37'9 5.4
2017-Nov-17 14:26N 44°09' E 028°26'3 6.0
2017-Nov-17 13:58N 44°12' E 028°24'3 6.1
2017-Nov-17 13:31N 44°14' E 028°22'3 5.7
2017-Nov-17 13:00N 44°15' E 028°18'  
Track history (hours):
 
Tides and Currents Weather Stations Pressure Air Temp Water Temp Dewpoint Dewpoint Depression Visibility Wind Speed Wind Dir Waves Ship Positions

Granex 2

Last reported at 2017-Nov-17 23:01 UTC. Time now 2017-Nov-17 23:22 UTC.
Position N 44°07' E 028°39'.

Length 85 m; draft 2.5 m.

Type: Ship. MMSI: 264163264.

Date/timePositionNaut miles runAvg speedWind from/ knotsBaromVisibWave heightAir tempDewpointWater temp
2017-Nov-17 23:01N 44°07' E 028°39'0 0.0
2017-Nov-17 22:31N 44°07' E 028°39'0 0.0
2017-Nov-17 22:01N 44°07' E 028°39'0 0.0
2017-Nov-17 21:31N 44°07' E 028°39'0 0.0
2017-Nov-17 21:01N 44°07' E 028°39'0 0.0
2017-Nov-17 20:31N 44°07' E 028°39'0 0.0
2017-Nov-17 20:01N 44°07' E 028°39'0 0.0
2017-Nov-17 19:31N 44°07' E 028°39'0 0.0
2017-Nov-17 19:00N 44°07' E 028°39'0 0.0
2017-Nov-17 18:31N 44°07' E 028°39'0 0.0
2017-Nov-17 18:01N 44°07' E 028°39'1 2.3
2017-Nov-17 17:31N 44°06' E 028°39'1 2.1
2017-Nov-17 16:59N 44°06' E 028°37'0 0.0
2017-Nov-17 16:31N 44°06' E 028°37'0 0.6
2017-Nov-17 16:01N 44°06' E 028°37'9 5.4
2017-Nov-17 14:26N 44°09' E 028°26'3 6.0
2017-Nov-17 13:58N 44°12' E 028°24'3 6.1
2017-Nov-17 13:31N 44°14' E 028°22'3 5.7
2017-Nov-17 13:00N 44°15' E 028°18'  

Dump ship's entire track history